createdAt,value
2019-04-03T00:00:34.469Z,7.3
2019-04-03T00:01:34.326Z,7.3
2019-04-03T00:02:34.472Z,7.3
2019-04-03T00:03:34.244Z,7.3
2019-04-03T00:04:34.662Z,7.3
2019-04-03T00:05:35.380Z,7.3
2019-04-03T00:06:35.304Z,7.3
2019-04-03T00:07:35.812Z,7.3
2019-04-03T00:08:34.735Z,7.3
2019-04-03T00:09:35.783Z,7.3
2019-04-03T00:10:35.927Z,7.3
2019-04-03T00:11:34.607Z,7.3
2019-04-03T00:12:34.691Z,7.3
2019-04-03T00:13:34.725Z,7.3
2019-04-03T00:14:34.770Z,7.3
2019-04-03T00:15:34.887Z,7.3
2019-04-03T00:16:34.867Z,7.3
2019-04-03T00:17:34.987Z,7.3
2019-04-03T00:18:35.021Z,7.3
2019-04-03T00:19:35.038Z,7.3
2019-04-03T00:20:35.088Z,7.3
2019-04-03T00:21:35.139Z,7.3
2019-04-03T00:22:35.185Z,7.3
2019-04-03T00:23:35.219Z,7.3
2019-04-03T00:24:35.263Z,7.3
2019-04-03T00:25:35.381Z,7.3
2019-04-03T00:26:35.396Z,7.3
2019-04-03T00:27:35.454Z,7.3
2019-04-03T00:28:35.497Z,7.4
2019-04-03T00:29:35.720Z,7.4
2019-04-03T00:30:35.689Z,7.4
2019-04-03T00:31:35.685Z,7.4
2019-04-03T00:32:35.826Z,7.4
2019-04-03T00:33:35.774Z,7.4
2019-04-03T00:34:35.910Z,7.4
2019-04-03T00:35:35.898Z,7.4
2019-04-03T00:36:35.914Z,7.4
2019-04-03T00:37:36.130Z,7.5
2019-04-03T00:38:36.035Z,7.5
2019-04-03T00:39:36.119Z,7.5
2019-04-03T00:40:36.240Z,7.5
2019-04-03T00:41:36.249Z,7.5
2019-04-03T00:42:36.281Z,7.5
2019-04-03T00:43:36.294Z,7.6
2019-04-03T00:44:36.318Z,7.6
2019-04-03T00:45:36.380Z,7.6
2019-04-03T00:46:36.419Z,7.6
2019-04-03T00:47:36.683Z,7.6
2019-04-03T00:48:36.554Z,7.6
2019-04-03T00:49:36.625Z,7.6
2019-04-03T00:50:36.648Z,7.6
2019-04-03T00:51:36.752Z,7.6
2019-04-03T00:52:36.805Z,7.6
2019-04-03T00:53:36.828Z,7.6
2019-04-03T00:54:36.895Z,7.6
2019-04-03T00:55:36.940Z,7.6
2019-04-03T00:56:36.974Z,7.6
2019-04-03T00:57:37.069Z,7.6
2019-04-03T00:58:37.105Z,7.6
2019-04-03T00:59:37.110Z,7.6
2019-04-03T01:00:37.204Z,7.6
2019-04-03T01:01:37.324Z,7.6
2019-04-03T01:02:37.443Z,7.6
2019-04-03T01:03:37.418Z,7.6
2019-04-03T01:04:37.498Z,7.6
2019-04-03T01:05:37.530Z,7.6
2019-04-03T01:06:37.555Z,7.6
2019-04-03T01:07:37.713Z,7.6
2019-04-03T01:08:37.691Z,7.6
2019-04-03T01:09:37.716Z,7.6
2019-04-03T01:10:37.824Z,7.6
2019-04-03T01:11:37.826Z,7.7
2019-04-03T01:12:37.904Z,7.7
2019-04-03T01:13:37.930Z,7.7
2019-04-03T01:14:38.011Z,7.7
2019-04-03T01:15:38.064Z,7.7
2019-04-03T01:16:38.083Z,7.7
2019-04-03T01:17:38.187Z,7.7
2019-04-03T01:18:38.194Z,7.7
2019-04-03T01:19:38.241Z,7.7
2019-04-03T01:20:38.304Z,7.7
2019-04-03T01:21:38.442Z,7.7
2019-04-03T01:22:38.449Z,7.7
2019-04-03T01:23:38.505Z,7.7
2019-04-03T01:24:39.039Z,7.7
2019-04-03T01:25:39.501Z,7.7
2019-04-03T01:26:40.148Z,7.7
2019-04-03T01:27:41.068Z,7.7
2019-04-03T01:28:41.333Z,7.7
2019-04-03T01:29:38.812Z,7.8
2019-04-03T01:30:38.844Z,7.8
2019-04-03T01:31:38.921Z,7.8
2019-04-03T01:32:38.993Z,7.8
2019-04-03T01:33:39.041Z,7.8
2019-04-03T01:34:39.156Z,7.8
2019-04-03T01:35:39.156Z,7.8
2019-04-03T01:36:39.220Z,7.8
2019-04-03T01:37:39.307Z,7.8
2019-04-03T01:38:39.477Z,7.8
2019-04-03T01:39:39.439Z,7.8
2019-04-03T01:40:39.467Z,7.8
2019-04-03T01:41:39.544Z,7.8
2019-04-03T01:42:39.593Z,7.8
2019-04-03T01:43:39.630Z,7.8
2019-04-03T01:44:39.740Z,7.8
2019-04-03T01:45:39.743Z,7.8
2019-04-03T01:46:39.938Z,7.8
2019-04-03T01:47:39.871Z,7.8
2019-04-03T01:48:39.946Z,7.8
2019-04-03T01:49:39.991Z,7.8
2019-04-03T01:50:40.056Z,7.8
2019-04-03T01:51:40.063Z,7.8
2019-04-03T01:52:40.158Z,7.8
2019-04-03T01:53:40.173Z,7.8
2019-04-03T01:54:41.503Z,7.8
2019-04-03T01:55:40.896Z,7.8
2019-04-03T01:56:40.362Z,7.8
2019-04-03T01:57:40.608Z,7.8
2019-04-03T01:58:40.449Z,7.8
2019-04-03T01:59:41.171Z,7.8
2019-04-03T02:00:40.549Z,7.8
2019-04-03T02:01:40.659Z,7.8
2019-04-03T02:02:40.644Z,7.8
2019-04-03T02:03:41.625Z,7.8
2019-04-03T02:04:42.646Z,7.8
2019-04-03T02:05:43.020Z,7.8
2019-04-03T02:06:41.773Z,7.8
2019-04-03T02:07:40.911Z,7.8
2019-04-03T02:08:40.962Z,7.8
2019-04-03T02:09:41.182Z,7.8
2019-04-03T02:10:41.192Z,7.8
2019-04-03T02:11:41.117Z,7.8
2019-04-03T02:12:41.834Z,7.8
2019-04-03T02:13:41.345Z,7.8
2019-04-03T02:14:41.707Z,7.8
2019-04-03T02:15:41.411Z,7.8
2019-04-03T02:16:42.196Z,7.8
2019-04-03T02:17:42.190Z,7.8
2019-04-03T02:18:41.645Z,7.8
2019-04-03T02:19:41.732Z,7.8
2019-04-03T02:20:41.930Z,7.8
2019-04-03T02:21:41.628Z,7.8
2019-04-03T02:22:42.015Z,7.8
2019-04-03T02:23:41.722Z,7.8
2019-04-03T02:24:41.894Z,7.8
2019-04-03T02:25:41.845Z,7.9
2019-04-03T02:26:42.297Z,7.9
2019-04-03T02:27:41.938Z,7.8
2019-04-03T02:28:42.644Z,7.8
2019-04-03T02:29:42.652Z,7.8
2019-04-03T02:30:44.609Z,7.8
2019-04-03T02:31:43.004Z,7.8
2019-04-03T02:32:42.179Z,7.8
2019-04-03T02:33:43.648Z,7.8
2019-04-03T02:34:42.315Z,7.8
2019-04-03T02:35:43.457Z,7.8
2019-04-03T02:36:45.123Z,7.8
2019-04-03T02:37:43.534Z,7.8
2019-04-03T02:38:43.819Z,7.8
2019-04-03T02:39:43.994Z,7.8
2019-04-03T02:40:43.454Z,7.8
2019-04-03T02:41:44.268Z,7.8
2019-04-03T02:42:44.721Z,7.8
2019-04-03T02:43:46.237Z,7.8
2019-04-03T02:44:43.759Z,7.8
2019-04-03T02:45:45.022Z,7.8
2019-04-03T02:46:45.628Z,7.8
2019-04-03T02:47:45.505Z,7.8
2019-04-03T02:48:45.669Z,7.8
2019-04-03T02:49:45.236Z,7.8
2019-04-03T02:50:46.491Z,7.8
2019-04-03T02:51:44.451Z,7.8
2019-04-03T02:52:44.656Z,7.8
2019-04-03T02:53:44.798Z,7.8
2019-04-03T02:54:43.436Z,7.8
2019-04-03T02:55:43.451Z,7.8
2019-04-03T02:56:47.684Z,7.8
2019-04-03T02:57:43.840Z,7.8
2019-04-03T02:58:43.623Z,7.8
2019-04-03T02:59:43.597Z,7.8
2019-04-03T03:00:43.641Z,7.8
2019-04-03T03:01:43.743Z,7.8
2019-04-03T03:02:45.078Z,7.8
2019-04-03T03:03:43.864Z,7.8
2019-04-03T03:04:43.922Z,7.8
2019-04-03T03:05:44.130Z,7.8
2019-04-03T03:06:50.709Z,7.8
2019-04-03T03:07:44.042Z,7.8
2019-04-03T03:08:44.112Z,7.9
2019-04-03T03:09:46.574Z,7.9
2019-04-03T03:10:44.226Z,7.9
2019-04-03T03:11:44.207Z,7.9
2019-04-03T03:12:44.268Z,7.9
2019-04-03T03:13:44.353Z,7.9
2019-04-03T03:14:44.405Z,7.9
2019-04-03T03:15:44.990Z,7.9
2019-04-03T03:16:44.473Z,8
2019-04-03T03:17:44.539Z,8
2019-04-03T03:18:44.587Z,8
2019-04-03T03:19:44.777Z,8
2019-04-03T03:20:45.051Z,8
2019-04-03T03:21:45.529Z,8.1
2019-04-03T03:22:44.807Z,8.1
2019-04-03T03:23:44.844Z,8.1
2019-04-03T03:24:45.089Z,8.1
2019-04-03T03:25:44.961Z,8.1
2019-04-03T03:26:44.972Z,8.1
2019-04-03T03:27:45.158Z,8.1
2019-04-03T03:28:46.798Z,8.1
2019-04-03T03:29:45.125Z,8.1
2019-04-03T03:30:55.379Z,8.1
2019-04-03T03:32:07.693Z,8.2
2019-04-03T03:32:45.444Z,8.2
2019-04-03T03:33:45.450Z,8.1
2019-04-03T03:34:54.623Z,8.1
2019-04-03T03:35:47.964Z,8.2
2019-04-03T03:36:45.913Z,8.2
2019-04-03T03:37:45.545Z,8.2
2019-04-03T03:38:45.659Z,8.2
2019-04-03T03:39:45.871Z,8.2
2019-04-03T03:40:48.310Z,8.2
2019-04-03T03:41:45.905Z,8.2
2019-04-03T03:42:46.130Z,8.2
2019-04-03T03:43:46.276Z,8.2
2019-04-03T03:44:46.835Z,8.2
2019-04-03T03:45:46.014Z,8.2
2019-04-03T03:46:46.187Z,8.2
2019-04-03T03:47:46.259Z,8.2
2019-04-03T03:48:46.217Z,8.1
2019-04-03T03:49:48.409Z,8.1
2019-04-03T03:50:46.275Z,8.1
2019-04-03T03:51:46.471Z,8.1
2019-04-03T03:52:46.330Z,8.1
2019-04-03T03:53:46.915Z,8.1
2019-04-03T03:54:49.535Z,8.1
2019-04-03T03:55:46.685Z,8.1
2019-04-03T03:56:46.575Z,8.1
2019-04-03T03:57:46.650Z,8.1
2019-04-03T03:58:46.731Z,8.1
2019-04-03T03:59:49.337Z,8.1
2019-04-03T04:00:51.443Z,8.1
2019-04-03T04:01:47.402Z,8.1
2019-04-03T04:02:46.970Z,8.1
2019-04-03T04:03:46.989Z,8.1
2019-04-03T04:04:48.675Z,8.2
2019-04-03T04:05:47.111Z,8.2
2019-04-03T04:06:47.319Z,8.2
2019-04-03T04:07:47.250Z,8.2
2019-04-03T04:08:47.273Z,8.2
2019-04-03T04:09:49.436Z,8.1
2019-04-03T04:10:47.404Z,8.1
2019-04-03T04:11:47.480Z,8.1
2019-04-03T04:12:47.619Z,8.1
2019-04-03T04:13:48.846Z,8.1
2019-04-03T04:14:47.600Z,8.1
2019-04-03T04:15:47.625Z,8.1
2019-04-03T04:16:47.643Z,8.1
2019-04-03T04:17:49.943Z,8.1
2019-04-03T04:18:47.945Z,8.1
2019-04-03T04:19:47.926Z,8.1
2019-04-03T04:20:47.921Z,8.1
2019-04-03T04:21:48.275Z,8.1
2019-04-03T04:22:50.193Z,8.1
2019-04-03T04:23:48.011Z,8.1
2019-04-03T04:24:48.258Z,8.1
2019-04-03T04:25:48.649Z,8.1
2019-04-03T04:26:49.852Z,8.1
2019-04-03T04:27:48.317Z,8.1
2019-04-03T04:28:48.328Z,8.1
2019-04-03T04:29:48.363Z,8.1
2019-04-03T04:30:48.425Z,8.1
2019-04-03T04:31:48.725Z,8.1
2019-04-03T04:32:48.687Z,8
2019-04-03T04:33:48.563Z,8
2019-04-03T04:34:49.977Z,8
2019-04-03T04:35:51.295Z,8
2019-04-03T04:36:48.969Z,8
2019-04-03T04:37:48.852Z,8
2019-04-03T04:38:48.875Z,8
2019-04-03T04:39:49.004Z,8
2019-04-03T04:40:48.995Z,8
2019-04-03T04:41:49.056Z,8
2019-04-03T04:42:49.136Z,8
2019-04-03T04:43:49.175Z,8
2019-04-03T04:44:49.227Z,8
2019-04-03T04:45:49.320Z,8
2019-04-03T04:46:49.328Z,8
2019-04-03T04:47:49.422Z,8
2019-04-03T04:48:51.300Z,8
2019-04-03T04:49:49.528Z,8
2019-04-03T04:50:49.649Z,7.9
2019-04-03T04:51:49.699Z,7.9
2019-04-03T04:52:49.704Z,7.9
2019-04-03T04:53:49.756Z,7.9
2019-04-03T04:54:49.802Z,8
2019-04-03T04:55:49.886Z,8
2019-04-03T04:56:49.929Z,8
2019-04-03T04:57:49.959Z,8
2019-04-03T04:58:50.002Z,8
2019-04-03T04:59:50.070Z,8
2019-04-03T05:00:52.979Z,8
2019-04-03T05:01:50.161Z,8
2019-04-03T05:02:51.104Z,8
2019-04-03T05:03:50.252Z,8
2019-04-03T05:04:51.294Z,8
2019-04-03T05:05:50.347Z,7.9
2019-04-03T05:06:50.536Z,7.9
2019-04-03T05:07:50.413Z,7.9
2019-04-03T05:08:50.473Z,7.9
2019-04-03T05:09:50.563Z,7.9
2019-04-03T05:10:50.670Z,7.9
2019-04-03T05:11:50.672Z,7.9
2019-04-03T05:12:50.715Z,7.9
2019-04-03T05:13:50.786Z,7.9
2019-04-03T05:14:51.080Z,7.9
2019-04-03T05:15:51.781Z,7.9
2019-04-03T05:16:51.138Z,7.9
2019-04-03T05:17:51.151Z,7.9
2019-04-03T05:18:51.135Z,7.9
2019-04-03T05:19:51.152Z,7.9
2019-04-03T05:20:51.419Z,7.9
2019-04-03T05:21:52.845Z,7.9
2019-04-03T05:22:51.435Z,7.9
2019-04-03T05:23:51.374Z,7.9
2019-04-03T05:24:51.436Z,7.9
2019-04-03T05:25:51.504Z,7.9
2019-04-03T05:26:51.683Z,7.9
2019-04-03T05:27:51.583Z,7.9
2019-04-03T05:28:55.809Z,7.9
2019-04-03T05:29:51.699Z,7.9
2019-04-03T05:30:51.739Z,7.9
2019-04-03T05:31:52.019Z,7.9
2019-04-03T05:32:52.019Z,7.9
2019-04-03T05:33:52.329Z,7.9
2019-04-03T05:34:52.458Z,7.9
2019-04-03T05:35:52.039Z,7.9
2019-04-03T05:36:52.048Z,7.9
2019-04-03T05:37:52.196Z,7.9
2019-04-03T05:38:53.413Z,7.9
2019-04-03T05:39:54.592Z,7.9
2019-04-03T05:40:52.309Z,7.9
2019-04-03T05:41:52.487Z,7.9
2019-04-03T05:42:52.348Z,7.9
2019-04-03T05:43:52.479Z,7.9
2019-04-03T05:44:52.466Z,7.9
2019-04-03T05:45:52.500Z,7.9
2019-04-03T05:46:52.577Z,7.9
2019-04-03T05:47:52.628Z,7.9
2019-04-03T05:48:52.849Z,7.9
2019-04-03T05:49:55.507Z,7.9
2019-04-03T05:50:52.790Z,7.9
2019-04-03T05:51:52.847Z,7.9
2019-04-03T05:52:52.933Z,7.9
2019-04-03T05:53:54.049Z,7.9
2019-04-03T05:54:53.008Z,7.9
2019-04-03T05:55:53.104Z,7.9
2019-04-03T05:56:53.207Z,7.9
2019-04-03T05:57:53.180Z,7.9
2019-04-03T05:58:55.862Z,7.9
2019-04-03T06:00:00.260Z,7.9
2019-04-03T06:01:03.081Z,7.9
2019-04-03T06:01:53.393Z,7.9
2019-04-03T06:02:54.091Z,7.9
2019-04-03T06:03:53.479Z,7.9
2019-04-03T06:04:53.525Z,7.9
2019-04-03T06:05:53.568Z,7.9
2019-04-03T06:06:53.651Z,7.9
2019-04-03T06:07:53.752Z,8
2019-04-03T06:08:56.293Z,8
2019-04-03T06:09:56.515Z,8
2019-04-03T06:10:54.047Z,8
2019-04-03T06:11:53.987Z,8
2019-04-03T06:12:54.019Z,8
2019-04-03T06:13:54.106Z,8.1
2019-04-03T06:14:54.250Z,8.1
2019-04-03T06:15:54.286Z,8.1
2019-04-03T06:16:56.145Z,8.1
2019-04-03T06:17:55.714Z,8.1
2019-04-03T06:18:54.329Z,8.1
2019-04-03T06:19:54.353Z,8.1
2019-04-03T06:20:54.484Z,8.1
2019-04-03T06:21:54.610Z,8.1
2019-04-03T06:22:54.600Z,8.1
2019-04-03T06:23:54.701Z,8.1
2019-04-03T06:24:56.099Z,8.1
2019-04-03T06:25:54.876Z,8.1
2019-04-03T06:26:54.918Z,8.1
2019-04-03T06:27:54.850Z,8.1
2019-04-03T06:28:55.031Z,8.2
2019-04-03T06:29:55.544Z,8.2
2019-04-03T06:30:56.410Z,8.2
2019-04-03T06:31:55.894Z,8.2
2019-04-03T06:32:55.473Z,8.2
2019-04-03T06:33:55.414Z,8.2
2019-04-03T06:34:55.278Z,8.2
2019-04-03T06:35:55.376Z,8.2
2019-04-03T06:36:55.381Z,8.2
2019-04-03T06:37:55.432Z,8.3
2019-04-03T06:38:56.439Z,8.3
2019-04-03T06:39:55.724Z,8.3
2019-04-03T06:40:55.632Z,8.3
2019-04-03T06:41:55.655Z,8.3
2019-04-03T06:42:55.723Z,8.3
2019-04-03T06:43:55.765Z,8.3
2019-04-03T06:44:55.817Z,8.4
2019-04-03T06:45:57.507Z,8.4
2019-04-03T06:46:55.899Z,8.4
2019-04-03T06:47:55.956Z,8.4
2019-04-03T06:48:56.010Z,8.4
2019-04-03T06:49:56.446Z,8.4
2019-04-03T06:50:56.159Z,8.5
2019-04-03T06:51:56.368Z,8.5
2019-04-03T06:52:56.386Z,8.5
2019-04-03T06:53:58.701Z,8.5
2019-04-03T06:54:56.356Z,8.5
2019-04-03T06:55:56.462Z,8.6
2019-04-03T06:56:56.675Z,8.6
2019-04-03T06:57:56.788Z,8.6
2019-04-03T06:58:56.589Z,8.6
2019-04-03T06:59:56.781Z,8.6
2019-04-03T07:00:56.678Z,8.7
2019-04-03T07:01:57.022Z,8.7
2019-04-03T07:02:56.822Z,8.7
2019-04-03T07:03:57.076Z,8.8
2019-04-03T07:04:56.948Z,8.8
2019-04-03T07:05:57.214Z,8.8
2019-04-03T07:06:57.113Z,8.8
2019-04-03T07:07:57.275Z,8.9
2019-04-03T07:08:57.148Z,8.9
2019-04-03T07:09:57.386Z,8.9
2019-04-03T07:10:57.687Z,9
2019-04-03T07:11:57.679Z,9
2019-04-03T07:12:57.351Z,9
2019-04-03T07:13:57.433Z,9.1
2019-04-03T07:14:57.684Z,9.1
2019-04-03T07:15:57.475Z,9.1
2019-04-03T07:17:00.149Z,9.1
2019-04-03T07:18:00.569Z,9.1
2019-04-03T07:18:57.749Z,9.2
2019-04-03T07:19:57.675Z,9.2
2019-04-03T07:20:57.717Z,9.2
2019-04-03T07:21:57.784Z,9.3
2019-04-03T07:22:58.941Z,9.3
2019-04-03T07:24:00.076Z,9.3
2019-04-03T07:24:58.150Z,9.3
2019-04-03T07:25:58.015Z,9.3
2019-04-03T07:26:58.193Z,9.3
2019-04-03T07:27:58.331Z,9.3
2019-04-03T07:28:58.491Z,9.3
2019-04-03T07:29:58.251Z,9.3
2019-04-03T07:30:58.439Z,9.4
2019-04-03T07:31:58.342Z,9.4
2019-04-03T07:32:58.539Z,9.4
2019-04-03T07:34:01.511Z,9.4
2019-04-03T07:34:58.779Z,9.4
2019-04-03T07:35:58.612Z,9.4
2019-04-03T07:36:58.719Z,9.4
2019-04-03T07:37:58.705Z,9.4
2019-04-03T07:38:59.087Z,9.5
2019-04-03T07:39:59.268Z,9.5
2019-04-03T07:40:58.969Z,9.5
2019-04-03T07:41:58.953Z,9.6
2019-04-03T07:42:58.973Z,9.6
2019-04-03T07:43:59.312Z,9.6
2019-04-03T07:44:59.744Z,9.7
2019-04-03T07:45:59.133Z,9.7
2019-04-03T07:46:59.203Z,9.7
2019-04-03T07:47:59.198Z,9.7
2019-04-03T07:49:00.131Z,9.8
2019-04-03T07:49:59.358Z,9.8
2019-04-03T07:50:59.404Z,9.8
2019-04-03T07:51:59.444Z,9.8
2019-04-03T07:52:59.695Z,9.8
2019-04-03T07:53:59.578Z,9.8
2019-04-03T07:54:59.603Z,9.8
2019-04-03T07:55:59.704Z,9.9
2019-04-03T07:56:59.701Z,9.9
2019-04-03T07:58:00.826Z,9.9
2019-04-03T07:59:02.632Z,9.9
2019-04-03T07:59:59.960Z,10
2019-04-03T08:00:59.940Z,10
2019-04-03T08:02:00.011Z,10
2019-04-03T08:03:00.193Z,10
2019-04-03T08:04:00.877Z,10
2019-04-03T08:05:00.908Z,10
2019-04-03T08:06:00.975Z,10
2019-04-03T08:07:00.550Z,10
2019-04-03T08:08:01.694Z,10
2019-04-03T08:09:07.174Z,10
2019-04-03T08:10:00.515Z,10
2019-04-03T08:11:01.842Z,10
2019-04-03T08:12:03.167Z,10.1
2019-04-03T08:13:00.667Z,10.1
2019-04-03T08:14:00.622Z,10.1
2019-04-03T08:15:00.718Z,10.1
2019-04-03T08:16:00.733Z,10.1
2019-04-03T08:17:00.803Z,10.1
2019-04-03T08:18:00.858Z,10.1
2019-04-03T08:19:00.910Z,10.1
2019-04-03T08:20:01.097Z,10.2
2019-04-03T08:21:02.084Z,10.2
2019-04-03T08:22:01.937Z,10.2
2019-04-03T08:23:01.086Z,10.3
2019-04-03T08:24:01.131Z,10.3
2019-04-03T08:25:01.208Z,10.4
2019-04-03T08:26:01.314Z,10.4
2019-04-03T08:27:01.876Z,10.4
2019-04-03T08:28:01.359Z,10.4
2019-04-03T08:29:02.225Z,10.5
2019-04-03T08:30:01.587Z,10.5
2019-04-03T08:31:01.532Z,10.5
2019-04-03T08:32:01.810Z,10.6
2019-04-03T08:33:02.151Z,10.6
2019-04-03T08:34:13.941Z,10.7
2019-04-03T08:35:03.348Z,10.7
2019-04-03T08:36:02.209Z,10.7
2019-04-03T08:37:02.332Z,10.8
2019-04-03T08:38:02.147Z,10.8
2019-04-03T08:39:02.220Z,10.9
2019-04-03T08:40:02.252Z,10.9
2019-04-03T08:41:03.720Z,10.9
2019-04-03T08:42:02.361Z,10.9
2019-04-03T08:43:02.241Z,11
2019-04-03T08:44:03.272Z,11
2019-04-03T08:45:05.521Z,11.1
2019-04-03T08:46:02.447Z,11.1
2019-04-03T08:47:02.451Z,11.2
2019-04-03T08:48:02.518Z,11.2
2019-04-03T08:49:02.822Z,11.3
2019-04-03T08:50:02.627Z,11.3
2019-04-03T08:51:03.725Z,11.3
2019-04-03T08:52:03.641Z,11.4
2019-04-03T08:53:02.795Z,11.4
2019-04-03T08:54:03.047Z,11.4
2019-04-03T08:55:02.916Z,11.5
2019-04-03T08:56:02.987Z,11.5
2019-04-03T08:57:03.284Z,11.6
2019-04-03T08:58:03.330Z,11.6
2019-04-03T08:59:03.156Z,11.7
2019-04-03T09:00:03.206Z,11.7
2019-04-03T09:01:04.484Z,11.8
2019-04-03T09:02:03.280Z,11.8
2019-04-03T09:03:03.761Z,11.8
2019-04-03T09:04:03.466Z,11.9
2019-04-03T09:05:03.414Z,11.9
2019-04-03T09:06:03.477Z,12
2019-04-03T09:07:03.547Z,12
2019-04-03T09:08:03.624Z,12.1
2019-04-03T09:09:03.702Z,12.2
2019-04-03T09:10:03.741Z,12.2
2019-04-03T09:11:05.010Z,12.3
2019-04-03T09:12:03.881Z,12.3
2019-04-03T09:13:15.708Z,12.4
2019-04-03T09:14:03.977Z,12.4
2019-04-03T09:15:04.003Z,12.4
2019-04-03T09:16:04.098Z,12.5
2019-04-03T09:17:04.255Z,12.5
2019-04-03T09:18:06.395Z,12.5
2019-04-03T09:19:04.253Z,12.5
2019-04-03T09:20:04.306Z,12.6
2019-04-03T09:21:04.345Z,12.6
2019-04-03T09:22:04.453Z,12.6
2019-04-03T09:23:04.584Z,12.6
2019-04-03T09:24:04.538Z,12.6
2019-04-03T09:25:04.591Z,12.6
2019-04-03T09:26:04.748Z,12.6
2019-04-03T09:27:04.682Z,12.6
2019-04-03T09:28:04.710Z,12.6
2019-04-03T09:29:04.755Z,12.6
2019-04-03T09:30:05.158Z,12.6
2019-04-03T09:31:04.843Z,12.6
2019-04-03T09:32:04.898Z,12.6
2019-04-03T09:33:04.947Z,12.6
2019-04-03T09:34:04.993Z,12.5
2019-04-03T09:35:05.039Z,12.6
2019-04-03T09:36:05.238Z,12.6
2019-04-03T09:37:06.304Z,12.6
2019-04-03T09:38:05.333Z,12.7
2019-04-03T09:39:05.268Z,12.7
2019-04-03T09:40:05.273Z,12.8
2019-04-03T09:41:05.388Z,12.8
2019-04-03T09:42:05.409Z,12.8
2019-04-03T09:43:05.711Z,12.8
2019-04-03T09:44:05.640Z,12.9
2019-04-03T09:45:05.572Z,12.9
2019-04-03T09:46:05.681Z,13
2019-04-03T09:47:05.724Z,13
2019-04-03T09:48:06.185Z,13.1
2019-04-03T09:49:07.286Z,13.1
2019-04-03T09:50:05.866Z,13.2
2019-04-03T09:51:08.281Z,13.2
2019-04-03T09:52:05.988Z,13.3
2019-04-03T09:53:06.013Z,13.3
2019-04-03T09:54:06.081Z,13.4
2019-04-03T09:55:06.260Z,13.5
2019-04-03T09:56:07.547Z,13.5
2019-04-03T09:57:06.529Z,13.5
2019-04-03T09:58:06.279Z,13.6
2019-04-03T09:59:07.296Z,13.7
2019-04-03T10:00:09.478Z,13.8
2019-04-03T10:01:06.460Z,13.8
2019-04-03T10:02:06.701Z,13.9
2019-04-03T10:03:06.550Z,14
2019-04-03T10:04:06.802Z,14.1
2019-04-03T10:05:06.665Z,14.2
2019-04-03T10:06:06.719Z,14.3
2019-04-03T10:07:06.748Z,14.3
2019-04-03T10:08:07.910Z,14.4
2019-04-03T10:09:07.149Z,14.5
2019-04-03T10:10:07.102Z,14.6
2019-04-03T10:11:07.049Z,14.7
2019-04-03T10:12:07.040Z,14.8
2019-04-03T10:13:07.166Z,14.8
2019-04-03T10:14:07.321Z,14.9
2019-04-03T10:15:07.442Z,15
2019-04-03T10:16:07.251Z,15.1
2019-04-03T10:17:07.787Z,15.2
2019-04-03T10:19:07.389Z,15.4
2019-04-03T10:20:07.440Z,15.5
2019-04-03T10:21:07.768Z,15.6
2019-04-03T10:22:07.591Z,15.7
2019-04-03T10:23:07.598Z,15.7
2019-04-03T10:24:07.603Z,15.8
2019-04-03T10:25:07.722Z,15.8
2019-04-03T10:26:08.361Z,15.9
2019-04-03T10:28:07.872Z,16
2019-04-03T10:29:08.092Z,16.1
2019-04-03T10:30:07.973Z,16.2
2019-04-03T10:31:08.085Z,16.2
2019-04-03T10:32:08.162Z,16.3
2019-04-03T10:33:08.151Z,16.4
2019-04-03T10:34:08.224Z,16.5
2019-04-03T10:35:08.711Z,16.5
2019-04-03T10:36:10.171Z,16.6
2019-04-03T10:37:08.336Z,16.7
2019-04-03T10:38:08.458Z,16.7
2019-04-03T10:39:08.417Z,16.8
2019-04-03T10:40:08.523Z,16.8
2019-04-03T10:42:08.611Z,16.9
2019-04-03T10:43:08.629Z,16.9
2019-04-03T10:44:09.818Z,16.9
2019-04-03T10:45:08.734Z,17
2019-04-03T10:46:08.783Z,17.1
2019-04-03T10:47:08.984Z,17.1
2019-04-03T10:48:09.027Z,17.2
2019-04-03T10:49:08.927Z,17.2
2019-04-03T10:50:09.326Z,17.2
2019-04-03T10:51:09.985Z,17.2
2019-04-03T10:52:09.430Z,17.2
2019-04-03T10:53:09.182Z,17.3
2019-04-03T10:54:09.213Z,17.3
2019-04-03T10:55:09.231Z,17.3
2019-04-03T10:56:09.348Z,17.3
2019-04-03T10:57:09.678Z,17.3
2019-04-03T10:58:09.411Z,17.2
2019-04-03T10:59:12.313Z,17.2
2019-04-03T11:00:10.105Z,17.2
2019-04-03T11:01:09.591Z,17.1
2019-04-03T11:02:09.652Z,17
2019-04-03T11:03:09.697Z,17.1
2019-04-03T11:04:09.898Z,17.1
2019-04-03T11:05:09.800Z,17.1
2019-04-03T11:06:09.921Z,17.2
2019-04-03T11:07:10.092Z,17.2
2019-04-03T11:08:10.463Z,17.2
2019-04-03T11:09:10.439Z,17.2
2019-04-03T11:10:10.200Z,17.2
2019-04-03T11:11:10.338Z,17.2
2019-04-03T11:12:10.665Z,17.3
2019-04-03T11:13:10.457Z,17.3
2019-04-03T11:14:10.708Z,17.3
2019-04-03T11:15:11.206Z,17.3
2019-04-03T11:16:10.480Z,17.3
2019-04-03T11:17:10.531Z,17.4
2019-04-03T11:18:10.625Z,17.4
2019-04-03T11:19:10.650Z,17.5
2019-04-03T11:20:11.040Z,17.6
2019-04-03T11:21:10.866Z,17.6
2019-04-03T11:22:10.747Z,17.5
2019-04-03T11:23:11.174Z,17.5
2019-04-03T11:24:11.101Z,17.5
2019-04-03T11:25:13.338Z,17.5
2019-04-03T11:26:11.040Z,17.6
2019-04-03T11:27:11.259Z,17.7
2019-04-03T11:28:11.080Z,17.7
2019-04-03T11:29:11.146Z,17.8
2019-04-03T11:30:12.328Z,17.8
2019-04-03T11:31:11.271Z,17.8
2019-04-03T11:32:11.282Z,17.8
2019-04-03T11:33:13.416Z,17.8
2019-04-03T11:34:11.435Z,17.8
2019-04-03T11:35:11.722Z,17.8
2019-04-03T11:36:11.479Z,17.8
2019-04-03T11:37:11.698Z,17.8
2019-04-03T11:38:14.814Z,17.9
2019-04-03T11:39:15.124Z,17.9
2019-04-03T11:40:11.763Z,18
2019-04-03T11:41:16.535Z,18
2019-04-03T11:42:22.649Z,18
2019-04-03T11:43:11.978Z,18.1
2019-04-03T11:44:11.925Z,18.1
2019-04-03T11:45:11.971Z,18.1
2019-04-03T11:46:12.031Z,18.1
2019-04-03T11:47:13.035Z,18.1
2019-04-03T11:48:12.373Z,18.2
2019-04-03T11:49:12.422Z,18.3
2019-04-03T11:50:12.374Z,18.4
2019-04-03T11:51:12.299Z,18.4
2019-04-03T11:52:12.370Z,18.4
2019-04-03T11:53:12.967Z,18.4
2019-04-03T11:54:12.837Z,18.4
2019-04-03T11:55:12.527Z,18.4
2019-04-03T11:56:13.244Z,18.4
2019-04-03T11:57:13.961Z,18.4
2019-04-03T11:58:12.675Z,18.4
2019-04-03T11:59:12.797Z,18.5
2019-04-03T12:00:13.735Z,18.5
2019-04-03T12:01:15.736Z,18.5
2019-04-03T12:02:13.002Z,18.5
2019-04-03T12:03:12.991Z,18.5
2019-04-03T12:04:13.497Z,18.5
2019-04-03T12:05:15.768Z,18.6
2019-04-03T12:06:15.606Z,18.5
2019-04-03T12:07:13.255Z,18.5
2019-04-03T12:08:13.264Z,18.5
2019-04-03T12:09:13.319Z,18.6
2019-04-03T12:10:13.520Z,18.7
2019-04-03T12:11:13.775Z,18.7
2019-04-03T12:12:13.652Z,18.7
2019-04-03T12:13:14.461Z,18.7
2019-04-03T12:14:14.954Z,18.7
2019-04-03T12:15:15.769Z,18.8
2019-04-03T12:16:13.869Z,18.8
2019-04-03T12:17:13.909Z,18.8
2019-04-03T12:18:14.071Z,18.8
2019-04-03T12:19:14.260Z,18.9
2019-04-03T12:20:15.780Z,18.9
2019-04-03T12:21:14.706Z,18.8
2019-04-03T12:22:14.176Z,18.9
2019-04-03T12:23:14.424Z,19
2019-04-03T12:24:14.295Z,18.9
2019-04-03T12:25:14.271Z,19
2019-04-03T12:26:14.450Z,19
2019-04-03T12:27:14.756Z,19.1
2019-04-03T12:28:17.214Z,19.1
2019-04-03T12:29:15.812Z,19.1
2019-04-03T12:30:15.135Z,19.1
2019-04-03T12:31:15.008Z,19.2
2019-04-03T12:32:15.363Z,19.2
2019-04-03T12:33:14.763Z,19.3
2019-04-03T12:34:15.048Z,19.2
2019-04-03T12:35:15.373Z,19.3
2019-04-03T12:36:15.282Z,19.2
2019-04-03T12:37:16.057Z,19.4
2019-04-03T12:38:15.040Z,19.3
2019-04-03T12:39:15.433Z,19.4
2019-04-03T12:40:15.217Z,19.4
2019-04-03T12:41:15.709Z,19.4
2019-04-03T12:42:16.676Z,19.3
2019-04-03T12:43:15.720Z,19.3
2019-04-03T12:44:16.649Z,19.2
2019-04-03T12:45:17.854Z,19.1
2019-04-03T12:46:15.405Z,18.9
2019-04-03T12:47:16.213Z,18.9
2019-04-03T12:48:17.315Z,19
2019-04-03T12:49:15.882Z,19
2019-04-03T12:50:16.589Z,19
2019-04-03T12:51:15.671Z,19
2019-04-03T12:52:17.335Z,18.8
2019-04-03T12:53:18.078Z,18.9
2019-04-03T12:54:19.362Z,18.9
2019-04-03T12:55:16.568Z,18.9
2019-04-03T12:56:17.669Z,18.9
2019-04-03T12:57:17.209Z,18.9
2019-04-03T12:58:17.915Z,18.9
2019-04-03T12:59:16.288Z,18.9
2019-04-03T13:00:18.248Z,18.9
2019-04-03T13:01:18.352Z,18.9
2019-04-03T13:02:16.216Z,18.9
2019-04-03T13:03:18.056Z,18.9
2019-04-03T13:04:16.384Z,18.9
2019-04-03T13:05:17.834Z,18.9
2019-04-03T13:06:18.351Z,18.8
2019-04-03T13:07:16.623Z,18.8
2019-04-03T13:08:19.545Z,18.9
2019-04-03T13:09:16.682Z,18.8
2019-04-03T13:10:16.955Z,18.9
2019-04-03T13:11:21.081Z,18.9
2019-04-03T13:12:16.790Z,18.9
2019-04-03T13:13:17.062Z,18.9
2019-04-03T13:14:23.685Z,18.9
2019-04-03T13:15:17.199Z,18.9
2019-04-03T13:16:17.046Z,18.8
2019-04-03T13:17:17.129Z,18.7
2019-04-03T13:18:17.139Z,18.6
2019-04-03T13:19:17.170Z,18.7
2019-04-03T13:20:17.377Z,18.7
2019-04-03T13:21:17.525Z,18.7
2019-04-03T13:22:18.221Z,18.7
2019-04-03T13:23:17.294Z,18.8
2019-04-03T13:24:17.593Z,18.8
2019-04-03T13:25:19.642Z,18.8
2019-04-03T13:26:17.598Z,18.8
2019-04-03T13:27:17.716Z,18.7
2019-04-03T13:28:17.788Z,18.7
2019-04-03T13:29:20.422Z,18.6
2019-04-03T13:30:17.779Z,18.5
2019-04-03T13:31:17.803Z,18.5
2019-04-03T13:32:17.989Z,18.5
2019-04-03T13:33:17.944Z,18.6
2019-04-03T13:34:17.970Z,18.6
2019-04-03T13:35:17.982Z,18.5
2019-04-03T13:36:18.628Z,18.4
2019-04-03T13:37:18.050Z,18.3
2019-04-03T13:38:18.410Z,18.4
2019-04-03T13:39:18.176Z,18.3
2019-04-03T13:40:18.249Z,18.3
2019-04-03T13:41:18.274Z,18.2
2019-04-03T13:42:18.779Z,18.1
2019-04-03T13:43:20.457Z,18.2